Avondale, Colorado
Current Conditions -  °F | °C
As of 1:53 AM on Saturday 29 Nov 2014 (Local Time) from KPUB Reporting Station
Clear Clear  
Wind Chill: 30°   Ceiling: Unl
Heat Index: 34°   Visibility: 10mi
Dew Point: 19°   Wind: 5mph
Humidity: 54%   Direction: 200°SSW
Pressure: 29.79"   Gusts: NA
Location:  38.24°N, 104.35°W
Report Text: KPUB 290853Z AUTO 20004KT 10SM CLR 01/M07 A2979 RMK AO2 SLP055 T00111072 55006
Loading
Personal Weather Stations






























Interactive Weather Map New forecast layout! Learn more

10-Day Weather Forecast

Advertisements
Track Severe Weather on mobile